Galva, Kansas
Current Conditions -  °F | °C
As of 8:15 PM on Friday 24 Oct 2014 (Local Time) from KEWK Reporting Station
Clear Clear  
Wind Chill: 22°   Ceiling: Unl
Heat Index: 22°   Visibility: 10mi
Dew Point: 14°   Wind: 10mph
Humidity: 60%   Direction: 210°SSW
Pressure: 30.03"   Gusts: NA
Location:  38.38°N, 97.54°W
Report Text: KEWK 250115Z AUTO 21009KT 10SM CLR 22/14 A3003 RMK AO1
Loading
Personal Weather Stations






























Interactive Weather Map
Tropical Storm Tracking
New forecast layout! Learn more

10-Day Weather Forecast

Advertisements
Track Severe Weather on mobile